Time;durP1;ratioP1;P1;durP2;ratioP2;P2;SDS_P1;SDS_P2;PMS_P1;PMS_P2;Temp;Humidity;BMP_temperature;BMP_pressure;BME280_temperature;BME280_humidity;BME280_pressure;Samples;Min_cycle;Max_cycle;Signal;HPM_P1;HPM_P2
2021/06/15 00:00:17;;;;;;;6.68;4.60;;;;;;;;;;5017315;28;20017;-64
2021/06/15 00:02:43;;;;;;;14.90;5.30;;;;;;;;;;5017891;28;20427;-65
2021/06/15 00:05:09;;;;;;;8.27;5.47;;;;;;;;;;5021544;28;20076;-64
2021/06/15 00:07:36;;;;;;;7.47;4.50;;;;;;;;;;5024806;28;20029;-64
2021/06/15 00:10:03;;;;;;;8.93;4.75;;;;;;;;;;5013359;28;20017;-65
2021/06/15 00:12:29;;;;;;;6.78;4.93;;;;;;;;;;5026702;28;20022;-64
2021/06/15 00:14:55;;;;;;;244.40;156.00;;;;;;;;;;5018070;28;20062;-64
2021/06/15 00:17:21;;;;;;;16.80;7.75;;;;;;;;;;5023183;28;20033;-64
2021/06/15 00:19:47;;;;;;;8.48;4.50;;;;;;;;;;5015999;28;20029;-64
2021/06/15 00:22:13;;;;;;;6.30;4.10;;;;;;;;;;5028085;28;20064;-65
2021/06/15 00:24:39;;;;;;;7.50;4.18;;;;;;;;;;5015966;28;20025;-64
2021/06/15 00:27:05;;;;;;;8.05;4.78;;;;;;;;;;5020442;28;20022;-64
2021/06/15 00:29:31;;;;;;;8.30;5.22;;;;;;;;;;5024308;28;20056;-64
2021/06/15 00:31:57;;;;;;;7.43;3.90;;;;;;;;;;5014993;28;20468;-64
2021/06/15 00:34:23;;;;;;;7.43;4.65;;;;;;;;;;5027780;28;22441;-64
2021/06/15 00:36:49;;;;;;;7.28;4.28;;;;;;;;;;5019039;28;20025;-65
2021/06/15 00:39:14;;;;;;;6.53;4.47;;;;;;;;;;5024248;28;20101;-65
2021/06/15 00:41:40;;;;;;;7.57;4.82;;;;;;;;;;5029304;28;20028;-65
2021/06/15 00:44:11;;;;;;;9.77;5.20;;;;;;;;;;5018615;28;20094;-65
2021/06/15 00:46:37;;;;;;;7.22;4.38;;;;;;;;;;5029190;28;20026;-65
2021/06/15 00:49:03;;;;;;;7.43;4.38;;;;;;;;;;5024095;28;20100;-65
2021/06/15 00:51:29;;;;;;;7.40;5.10;;;;;;;;;;5022143;28;20543;-64
2021/06/15 00:53:55;;;;;;;8.68;4.32;;;;;;;;;;5031111;28;20388;-65
2021/06/15 00:56:21;;;;;;;9.00;5.25;;;;;;;;;;5031009;28;20036;-65
2021/06/15 00:58:47;;;;;;;5.50;4.53;;;;;;;;;;5020876;28;20030;-65
2021/06/15 01:01:14;;;;;;;6.25;4.30;;;;;;;;;;5028369;28;20021;-65
2021/06/15 01:03:40;;;;;;;9.70;5.30;;;;;;;;;;5019228;28;20026;-66
2021/06/15 01:06:10;;;;;;;7.63;4.03;;;;;;;;;;5030822;28;20033;-66
2021/06/15 01:08:49;;;;;;;6.75;4.38;;;;;;;;;;5020119;28;20052;-65
2021/06/15 01:11:24;;;;;;;7.75;4.85;;;;;;;;;;5022409;28;20030;-65
2021/06/15 01:14:11;;;;;;;6.35;4.47;;;;;;;;;;5030174;28;20030;-65
2021/06/15 01:16:42;;;;;;;8.80;5.20;;;;;;;;;;5015476;28;20037;-65
2021/06/15 01:19:26;;;;;;;6.65;5.20;;;;;;;;;;5024625;28;20068;-65
2021/06/15 01:22:15;;;;;;;11.00;5.43;;;;;;;;;;5030335;28;20040;-65
2021/06/15 01:25:00;;;;;;;9.27;5.15;;;;;;;;;;5008780;28;20037;-65
2021/06/15 01:27:36;;;;;;;7.25;4.95;;;;;;;;;;5020722;28;20473;-65
2021/06/15 01:30:06;;;;;;;8.80;5.28;;;;;;;;;;5030545;28;20502;-65
2021/06/15 01:32:33;;;;;;;7.13;4.78;;;;;;;;;;5019186;28;20022;-64
2021/06/15 01:35:00;;;;;;;8.57;4.95;;;;;;;;;;5025314;28;20044;-64
2021/06/15 01:37:29;;;;;;;9.77;4.95;;;;;;;;;;5026119;28;20036;-64
2021/06/15 01:39:56;;;;;;;6.40;4.80;;;;;;;;;;5031863;28;20112;-63
2021/06/15 01:42:31;;;;;;;6.93;5.03;;;;;;;;;;5001590;28;20395;-63
2021/06/15 01:45:01;;;;;;;9.48;5.13;;;;;;;;;;5024548;28;20416;-64
2021/06/15 01:47:27;;;;;;;9.30;5.03;;;;;;;;;;5025670;28;20029;-63
2021/06/15 01:50:02;;;;;;;9.38;5.47;;;;;;;;;;5017774;28;20026;-64
2021/06/15 01:52:34;;;;;;;7.85;5.03;;;;;;;;;;5002924;28;20061;-64
2021/06/15 01:55:00;;;;;;;10.40;4.80;;;;;;;;;;5033312;28;20452;-63
2021/06/15 01:57:26;;;;;;;10.20;5.55;;;;;;;;;;5021191;28;20022;-64
2021/06/15 01:59:55;;;;;;;9.80;5.80;;;;;;;;;;5024075;28;20491;-64
2021/06/15 02:02:21;;;;;;;9.45;5.72;;;;;;;;;;5029931;28;20026;-64
2021/06/15 02:04:49;;;;;;;10.25;5.60;;;;;;;;;;5019303;28;20424;-64
2021/06/15 02:07:21;;;;;;;10.90;5.55;;;;;;;;;;5022727;28;20393;-63
2021/06/15 02:09:50;;;;;;;8.77;5.22;;;;;;;;;;5028525;28;20036;-63
2021/06/15 02:12:19;;;;;;;10.40;5.00;;;;;;;;;;5017035;28;20022;-63
2021/06/15 02:14:45;;;;;;;9.10;5.35;;;;;;;;;;5026742;28;20037;-64
2021/06/15 02:17:13;;;;;;;7.47;5.18;;;;;;;;;;5023395;28;20033;-64
2021/06/15 02:19:40;;;;;;;7.90;4.88;;;;;;;;;;5019218;28;20390;-64
2021/06/15 02:22:08;;;;;;;7.95;5.22;;;;;;;;;;5029684;28;20025;-64
2021/06/15 02:24:42;;;;;;;10.15;4.90;;;;;;;;;;5018400;28;20022;-63
2021/06/15 02:27:09;;;;;;;8.30;5.45;;;;;;;;;;5023078;28;20432;-63
2021/06/15 02:29:36;;;;;;;8.05;5.20;;;;;;;;;;5025369;28;20087;-64
2021/06/15 02:32:04;;;;;;;12.68;5.50;;;;;;;;;;5016489;28;20034;-64
2021/06/15 02:34:30;;;;;;;8.27;4.90;;;;;;;;;;5027113;28;20088;-64
2021/06/15 02:36:57;;;;;;;8.20;5.22;;;;;;;;;;5020938;28;20026;-65
2021/06/15 02:39:27;;;;;;;11.20;6.03;;;;;;;;;;5019633;28;20134;-64
2021/06/15 02:41:54;;;;;;;7.05;4.63;;;;;;;;;;5028849;28;20120;-64
2021/06/15 02:44:20;;;;;;;8.77;5.25;;;;;;;;;;5016256;28;20036;-65
2021/06/15 02:46:48;;;;;;;7.40;4.60;;;;;;;;;;5025849;28;20024;-64
2021/06/15 02:49:16;;;;;;;8.07;5.60;;;;;;;;;;5023400;28;20395;-64
2021/06/15 02:52:11;;;;;;;8.20;5.25;;;;;;;;;;5018304;28;20022;-64
2021/06/15 02:54:41;;;;;;;6.55;4.97;;;;;;;;;;4997684;28;20495;-64
2021/06/15 02:57:08;;;;;;;9.57;5.35;;;;;;;;;;5022160;28;20044;-65
2021/06/15 02:59:35;;;;;;;8.88;5.25;;;;;;;;;;5021174;28;20041;-64
2021/06/15 03:02:01;;;;;;;7.35;4.97;;;;;;;;;;5016033;28;20026;-63
2021/06/15 03:04:27;;;;;;;12.27;5.57;;;;;;;;;;5028045;28;20033;-64
2021/06/15 03:06:53;;;;;;;8.35;5.05;;;;;;;;;;5019967;28;20029;-64
2021/06/15 03:09:19;;;;;;;9.35;6.07;;;;;;;;;;5020972;28;20021;-64
2021/06/15 03:11:48;;;;;;;11.43;5.72;;;;;;;;;;5027351;28;20030;-64
2021/06/15 03:14:26;;;;;;;8.98;5.13;;;;;;;;;;5015825;28;20510;-64
2021/06/15 03:16:56;;;;;;;11.30;5.28;;;;;;;;;;5024284;28;20057;-64
2021/06/15 03:19:28;;;;;;;8.82;5.22;;;;;;;;;;5019002;28;20026;-64
2021/06/15 03:21:59;;;;;;;7.00;5.40;;;;;;;;;;5028205;28;20384;-64
2021/06/15 03:24:27;;;;;;;11.05;4.60;;;;;;;;;;5000469;28;20434;-64
2021/06/15 03:26:58;;;;;;;10.57;5.03;;;;;;;;;;5022651;28;20084;-64
2021/06/15 03:29:25;;;;;;;9.68;5.00;;;;;;;;;;5024042;28;20437;-64
2021/06/15 03:31:52;;;;;;;7.93;5.47;;;;;;;;;;5016166;28;20026;-64
2021/06/15 03:34:20;;;;;;;9.00;4.93;;;;;;;;;;5028433;28;20021;-64
2021/06/15 03:36:47;;;;;;;12.45;5.40;;;;;;;;;;5018748;28;20104;-64
2021/06/15 03:39:14;;;;;;;9.23;5.05;;;;;;;;;;5019172;28;20095;-63
2021/06/15 03:41:41;;;;;;;7.90;4.35;;;16.60;70.60;;;;;;5026255;28;20057;-64
2021/06/15 03:44:07;;;;;;;8.10;4.72;;;17.10;68.60;;;;;;5015275;28;20132;-64
2021/06/15 03:46:34;;;;;;;6.85;4.43;;;;;;;;;;5026145;28;20053;-64
2021/06/15 03:49:02;;;;;;;7.10;4.82;;;;;;;;;;5020323;28;20042;-65
2021/06/15 03:51:32;;;;;;;8.25;4.57;;;18.50;62.70;;;;;;5019091;28;20408;-64
2021/06/15 03:54:08;;;;;;;5.78;4.13;;;18.80;62.30;;;;;;5026727;28;20034;-64
2021/06/15 03:56:39;;;;;;;8.80;5.28;;;19.30;60.90;;;;;;5026412;28;20017;-64
2021/06/15 03:59:07;;;;;;;8.98;3.88;;;20.00;58.40;;;;;;5020864;28;20033;-64
2021/06/15 04:01:38;;;;;;;10.20;4.47;;;20.40;55.50;;;;;;5025742;28;20021;-64
2021/06/15 04:04:10;;;;;;;6.07;3.90;;;20.60;55.60;;;;;;5013909;28;20030;-64
2021/06/15 04:06:40;;;;;;;5.20;3.60;;;20.70;55.50;;;;;;5025883;28;20033;-64
2021/06/15 04:09:07;;;;;;;6.85;4.20;;;20.70;54.90;;;;;;5021074;28;20017;-64
2021/06/15 04:11:37;;;;;;;7.30;4.45;;;20.60;55.10;;;;;;5020074;28;20029;-63
2021/06/15 04:14:07;;;;;;;5.07;3.90;;;20.70;55.10;;;;;;5031904;28;20033;-64
2021/06/15 04:16:32;;;;;;;7.93;4.38;;;21.20;54.10;;;;;;5020262;28;20022;-64
2021/06/15 04:19:00;;;;;;;10.35;4.25;;;21.50;51.50;;;;;;5026798;28;20022;-64
2021/06/15 04:21:27;;;;;;;7.93;4.35;;;20.80;52.30;;;;;;5027698;28;20130;-64
2021/06/15 04:24:03;;;;;;;9.38;4.35;;;20.90;52.60;;;;;;5019303;28;20029;-63
2021/06/15 04:26:33;;;;;;;8.70;4.70;;;21.10;51.80;;;;;;5004275;28;20037;-64
2021/06/15 04:28:59;;;;;;;6.18;4.22;;;21.80;50.40;;;;;;5026719;28;20029;-64
2021/06/15 04:31:28;;;;;;;8.15;4.32;;;23.00;46.90;;;;;;5027596;28;20039;-64
2021/06/15 04:33:55;;;;;;;9.35;4.25;;;;;;;;;;5018922;28;20104;-63
2021/06/15 04:36:21;;;;;;;5.53;3.30;;;24.50;43.10;;;;;;5031231;28;20564;-64
2021/06/15 04:39:05;;;;;;;6.45;3.33;;;25.60;41.80;;;;;;5022083;28;20053;-64
2021/06/15 04:41:41;;;;;;;8.90;3.80;;;26.30;39.40;;;;;;5014290;23;20042;-68
2021/06/15 04:44:12;;;;;;;8.32;4.07;;;26.50;37.60;;;;;;4974189;28;20126;-68
2021/06/15 04:46:46;;;;;;;7.40;4.03;;;26.40;38.10;;;;;;4975814;28;20353;-69
2021/06/15 04:49:18;;;;;;;7.82;4.32;;;27.30;36.60;;;;;;4975962;28;20034;-69
2021/06/15 04:51:45;;;;;;;7.68;3.22;;;26.70;37.70;;;;;;4975760;28;20058;-68
2021/06/15 04:54:13;;;;;;;5.55;3.50;;;27.30;37.00;;;;;;4959872;28;20031;-69
2021/06/15 04:56:41;;;;;;;5.50;3.60;;;28.00;35.50;;;;;;4975414;28;20027;-69
2021/06/15 04:59:07;;;;;;;5.47;3.53;;;28.80;35.10;;;;;;4966184;28;20035;-69
2021/06/15 05:01:35;;;;;;;7.03;3.50;;;30.10;32.80;;;;;;4961947;28;20028;-69
2021/06/15 05:04:03;;;;;;;6.00;3.17;;;30.00;32.60;;;;;;4971995;28;20057;-68
2021/06/15 05:06:29;;;;;;;7.68;3.20;;;30.30;32.40;;;;;;4958864;28;20055;-68
2021/06/15 05:09:01;;;;;;;8.18;3.67;;;30.40;32.30;;;;;;4967395;28;20063;-68
2021/06/15 05:11:34;;;;;;;7.72;3.72;;;30.40;32.30;;;;;;4966369;28;20056;-68
2021/06/15 05:14:04;;;;;;;5.43;3.33;;;30.40;31.80;;;;;;4959058;28;20054;-68
2021/06/15 05:16:34;;;;;;;5.68;3.72;;;31.30;30.70;;;;;;4970262;28;20019;-67
2021/06/15 05:19:00;;;;;;;4.78;3.40;;;31.80;30.00;;;;;;4964419;28;20046;-68
2021/06/15 05:21:32;;;;;;;7.45;3.60;;;32.10;29.60;;;;;;4975003;28;20493;-68
2021/06/15 05:24:03;;;;;;;7.22;3.35;;;31.70;30.00;;;;;;4957054;28;20027;-68
2021/06/15 05:26:30;;;;;;;19.15;12.45;;;30.70;31.70;;;;;;4970195;28;20502;-68
2021/06/15 05:28:55;;;;;;;106.72;71.07;;;30.60;31.70;;;;;;4963455;28;20058;-67
2021/06/15 05:31:21;;;;;;;7.43;4.35;;;31.00;31.50;;;;;;4968050;28;20027;-68
2021/06/15 05:33:46;;;;;;;10.82;4.30;;;31.00;30.40;;;;;;4970454;28;20393;-68
2021/06/15 05:36:12;;;;;;;11.32;5.15;;;30.10;32.10;;;;;;4974488;28;20027;-68
2021/06/15 05:38:38;;;;;;;8.32;3.95;;;;;;;;;;4974882;28;20099;-68
2021/06/15 05:41:04;;;;;;;9.10;4.00;;;31.80;30.30;;;;;;4974725;28;20027;-68
2021/06/15 05:43:29;;;;;;;5.90;3.15;;;31.50;30.80;;;;;;4962541;28;20094;-69
2021/06/15 05:45:55;;;;;;;10.23;3.53;;;30.80;32.10;;;;;;4971986;28;20034;-68
2021/06/15 05:48:20;;;;;;;7.88;3.53;;;30.50;33.20;;;;;;4974341;28;20038;-68
2021/06/15 05:50:48;;;;;;;9.15;4.00;;;30.60;33.40;;;;;;4967964;28;20032;-68
2021/06/15 05:53:15;;;;;;;7.75;3.75;;;30.30;32.40;;;;;;4966183;28;20027;-68
2021/06/15 05:55:41;;;;;;;8.23;4.00;;;;;;;;;;4972126;28;20085;-68
2021/06/15 05:58:06;;;;;;;8.63;3.60;;;30.80;31.70;;;;;;4972233;28;20031;-68
2021/06/15 06:00:32;;;;;;;8.80;4.35;;;31.00;31.70;;;;;;4971343;28;20019;-69
2021/06/15 06:02:58;;;;;;;6.07;4.00;;;;;;;;;;4974640;28;20031;-69
2021/06/15 06:08:09;;;;;;;9.88;3.72;;;;;;;;;;4957992;28;20045;-69
2021/06/15 06:10:36;;;;;;;4.53;3.28;;;;;;;;;;4969373;28;20023;-68
2021/06/15 06:13:04;;;;;;;9.75;4.00;;;31.20;32.60;;;;;;4963957;28;20031;-69
2021/06/15 06:15:30;;;;;;;7.05;3.92;;;32.10;31.20;;;;;;4965433;28;20030;-69
2021/06/15 06:18:02;;;;;;;7.03;3.60;;;32.30;31.20;;;;;;4957911;28;20402;-69
2021/06/15 06:20:28;;;;;;;7.13;3.85;;;32.80;30.50;;;;;;4970258;28;20447;-68
2021/06/15 06:22:57;;;;;;;6.43;3.67;;;32.50;30.10;;;;;;4962864;28;20102;-69
2021/06/15 06:25:24;;;;;;;6.57;3.53;;;32.90;30.30;;;;;;4962504;28;20378;-69
2021/06/15 06:27:50;;;;;;;8.13;4.28;;;;;;;;;;4969924;28;20022;-71
2021/06/15 06:30:16;;;;;;;6.50;3.30;;;;;;;;;;4957936;28;20024;-68
2021/06/15 06:32:43;;;;;;;8.45;4.10;;;;;;;;;;4967650;28;20474;-68
2021/06/15 06:35:09;;;;;;;10.80;3.58;;;;;;;;;;4963312;28;20493;-67
2021/06/15 06:37:35;;;;;;;4.82;2.90;;;34.90;27.00;;;;;;4960683;28;20117;-68
2021/06/15 06:40:05;;;;;;;9.32;3.50;;;35.90;26.20;;;;;;4968411;28;20484;-69
2021/06/15 06:42:31;;;;;;;17.25;13.55;;;35.70;26.40;;;;;;4973708;28;20041;-69
2021/06/15 06:44:56;;;;;;;13.48;9.98;;;35.70;26.20;;;;;;4972773;28;20034;-69
2021/06/15 06:47:22;;;;;;;300.35;272.10;;;35.90;26.40;;;;;;4973588;28;20027;-70
2021/06/15 06:49:48;;;;;;;111.53;85.97;;;35.70;26.10;;;;;;4967373;28;20029;-71
2021/06/15 06:52:13;;;;;;;124.68;68.60;;;35.70;26.00;;;;;;4964373;28;20520;-72
2021/06/15 06:54:39;;;;;;;24.92;15.20;;;34.30;27.50;;;;;;4972452;28;20026;-70
2021/06/15 06:57:04;;;;;;;8.05;4.22;;;34.20;28.00;;;;;;4971518;28;20027;-70
2021/06/15 06:59:30;;;;;;;18.92;8.73;;;33.90;28.50;;;;;;4972419;28;20018;-71
2021/06/15 07:01:55;;;;;;;22.88;16.02;;;35.30;26.40;;;;;;4964580;28;20085;-69
2021/06/15 07:04:21;;;;;;;26.80;18.63;;;35.00;27.70;;;;;;4972098;28;20523;-71
2021/06/15 07:06:47;;;;;;;10.60;7.22;;;34.40;28.00;;;;;;4973208;28;20022;-73
2021/06/15 07:09:12;;;;;;;9.05;4.03;;;34.90;27.90;;;;;;4957327;28;20515;-72
2021/06/15 07:11:38;;;;;;;12.40;3.75;;;35.60;26.40;;;;;;4973128;28;20083;-72
2021/06/15 07:14:03;;;;;;;10.25;5.43;;;34.90;27.10;;;;;;4976036;28;20109;-73
2021/06/15 07:16:29;;;;;;;8.27;3.67;;;35.20;26.60;;;;;;4978338;28;20045;-73
2021/06/15 07:18:55;;;;;;;12.00;6.25;;;34.70;27.30;;;;;;4958126;28;20042;-73
2021/06/15 07:21:23;;;;;;;14.70;5.97;;;34.30;28.30;;;;;;4969791;28;20039;-73
2021/06/15 07:23:48;;;;;;;12.90;7.40;;;34.50;28.70;;;;;;4982975;28;20027;-70
2021/06/15 07:26:14;;;;;;;6.90;3.75;;;35.10;27.80;;;;;;4972034;28;20456;-69
2021/06/15 07:28:39;;;;;;;11.25;4.35;;;35.90;26.70;;;;;;4987876;28;20062;-68
2021/06/15 07:31:05;;;;;;;10.50;3.58;;;;;;;;;;4982561;28;20043;-69
2021/06/15 07:33:31;;;;;;;10.43;3.50;;;;;;;;;;4973001;28;20030;-69
2021/06/15 07:35:58;;;;;;;8.75;4.07;;;;;;;;;;4972327;28;20649;-69
2021/06/15 07:38:24;;;;;;;12.85;3.78;;;;;;;;;;4973004;28;20047;-69
2021/06/15 07:40:50;;;;;;;5.55;3.25;;;;;;;;;;4971609;28;20035;-69
2021/06/15 07:43:16;;;;;;;11.23;3.92;;;;;;;;;;4971701;28;20029;-69
2021/06/15 07:45:42;;;;;;;9.00;4.22;;;;;;;;;;4972591;28;20034;-68
2021/06/15 07:48:08;;;;;;;12.50;4.28;;;35.70;26.40;;;;;;4980652;28;20052;-69
2021/06/15 07:50:34;;;;;;;10.52;3.83;;;34.80;27.40;;;;;;4990745;28;20338;-69
2021/06/15 07:52:59;;;;;;;6.15;3.45;;;35.90;27.30;;;;;;4990971;28;20392;-68
2021/06/15 07:55:25;;;;;;;9.38;3.65;;;37.00;25.80;;;;;;4992287;28;20030;-69
2021/06/15 07:57:51;;;;;;;7.75;3.60;;;37.80;24.30;;;;;;4967644;28;20046;-68
2021/06/15 08:00:17;;;;;;;17.00;3.90;;;38.50;23.70;;;;;;4967631;28;20026;-67
2021/06/15 08:02:44;;;;;;;10.77;3.88;;;;;;;;;;4955134;28;20379;-68
2021/06/15 08:05:11;;;;;;;9.30;4.00;;;38.50;22.90;;;;;;4968190;28;20533;-68
2021/06/15 08:07:37;;;;;;;10.60;3.38;;;38.20;23.60;;;;;;4969969;28;20114;-68
2021/06/15 08:10:04;;;;;;;7.18;3.50;;;36.50;25.70;;;;;;4972793;28;20146;-68
2021/06/15 08:12:29;;;;;;;9.52;3.58;;;35.70;26.40;;;;;;4972383;28;20081;-68
2021/06/15 08:14:55;;;;;;;12.20;3.35;;;36.60;25.80;;;;;;4977758;28;20475;-68
2021/06/15 08:17:20;;;;;;;11.32;3.78;;;37.10;24.30;;;;;;4972588;28;20077;-67
2021/06/15 08:19:46;;;;;;;6.00;3.35;;;36.80;24.90;;;;;;4972064;28;20015;-67
2021/06/15 08:22:11;;;;;;;9.70;3.72;;;37.20;24.70;;;;;;4972320;28;20027;-68
2021/06/15 08:24:37;;;;;;;7.07;3.35;;;37.30;24.50;;;;;;4972409;28;20401;-67
2021/06/15 08:27:05;;;;;;;7.03;3.38;;;35.90;25.90;;;;;;4972175;28;20586;-68
2021/06/15 08:29:31;;;;;;;11.32;3.50;;;37.30;25.70;;;;;;4972624;28;20023;-68
2021/06/15 08:31:57;;;;;;;5.05;2.92;;;38.10;24.80;;;;;;4972404;28;20019;-68
2021/06/15 08:34:22;;;;;;;6.93;3.25;;;37.70;24.20;;;;;;4972561;28;20038;-68
2021/06/15 08:36:48;;;;;;;14.35;3.85;;;35.50;25.90;;;;;;4972385;28;20443;-68
2021/06/15 08:39:14;;;;;;;6.57;3.38;;;34.10;27.80;;;;;;4966761;28;20049;-67
2021/06/15 08:41:40;;;;;;;8.68;3.40;;;32.80;29.40;;;;;;4965308;28;20043;-67
2021/06/15 08:44:07;;;;;;;6.53;3.35;;;32.90;30.10;;;;;;4956598;28;20402;-67
2021/06/15 08:46:35;;;;;;;8.48;3.85;;;32.70;30.70;;;;;;4968618;28;20085;-67
2021/06/15 08:49:02;;;;;;;5.50;3.25;;;32.10;31.70;;;;;;4956518;28;20058;-68
2021/06/15 08:51:28;;;;;;;7.45;3.67;;;31.30;32.70;;;;;;4971863;28;20140;-68
2021/06/15 08:54:03;;;;;;;8.48;3.40;;;31.70;33.20;;;;;;4972137;28;20034;-67
2021/06/15 08:56:35;;;;;;;8.93;3.92;;;32.40;32.90;;;;;;4972145;28;20026;-68
2021/06/15 08:59:19;;;;;;;12.15;4.05;;;33.90;31.20;;;;;;4974399;28;20019;-68
2021/06/15 09:01:47;;;;;;;8.57;3.58;;;34.90;28.90;;;;;;4966627;28;20029;-68
2021/06/15 09:04:13;;;;;;;7.90;3.10;;;35.80;28.10;;;;;;4975524;28;20023;-68
2021/06/15 09:06:40;;;;;;;5.03;2.65;;;35.70;27.40;;;;;;4975699;28;20486;-68
2021/06/15 09:09:06;;;;;;;10.25;2.90;;;36.10;26.90;;;;;;4974014;28;20030;-68
2021/06/15 09:11:53;;;;;;;8.35;3.20;;;36.30;27.00;;;;;;4974321;28;20086;-69
2021/06/15 09:14:40;;;;;;;8.07;2.92;;;36.30;26.90;;;;;;4975489;28;20034;-68
2021/06/15 09:17:08;;;;;;;4.50;2.42;;;35.80;27.20;;;;;;4975388;28;20042;-68
2021/06/15 09:19:37;;;;;;;9.35;2.95;;;36.10;26.40;;;;;;4975354;28;20034;-68
2021/06/15 09:22:03;;;;;;;6.22;3.00;;;36.40;26.80;;;;;;4980581;28;20077;-68
2021/06/15 09:24:29;;;;;;;6.18;2.60;;;35.90;26.90;;;;;;4993528;28;20023;-68
2021/06/15 09:27:07;;;;;;;6.78;3.33;;;35.60;27.80;;;;;;4994511;28;20034;-68
2021/06/15 09:29:35;;;;;;;4.28;2.50;;;35.20;28.20;;;;;;4994651;28;20370;-68
2021/06/15 09:32:00;;;;;;;8.77;2.45;;;35.20;28.00;;;;;;4994560;28;20023;-68
2021/06/15 09:34:26;;;;;;;5.13;2.63;;;35.50;28.00;;;;;;4994431;28;20026;-68
2021/06/15 09:36:54;;;;;;;5.35;2.45;;;35.60;26.40;;;;;;4994360;28;20081;-68
2021/06/15 09:39:20;;;;;;;5.57;2.70;;;35.30;26.80;;;;;;4979429;28;20039;-67
2021/06/15 09:41:48;;;;;;;4.18;2.42;;;35.10;28.10;;;;;;4968247;28;20028;-68
2021/06/15 09:44:25;;;;;;;4.22;2.55;;;35.10;28.10;;;;;;4963698;28;20019;-68
2021/06/15 09:47:02;;;;;;;7.25;2.80;;;34.90;27.30;;;;;;4973238;28;20038;-68
2021/06/15 09:49:30;;;;;;;5.20;2.88;;;34.30;27.80;;;;;;4974898;28;20102;-68
2021/06/15 09:52:33;;;;;;;4.72;2.63;;;33.40;29.80;;;;;;4973965;28;20405;-68
2021/06/15 09:55:05;;;;;;;8.27;2.80;;;33.50;29.40;;;;;;4974948;28;20481;-68
2021/06/15 09:57:33;;;;;;;9.25;3.10;;;34.00;28.70;;;;;;4974602;28;20038;-68
2021/06/15 10:00:02;;;;;;;5.93;2.05;;;34.40;29.10;;;;;;4968817;28;20054;-67
2021/06/15 10:02:31;;;;;;;10.27;2.83;;;34.70;27.00;;;;;;4955340;28;20509;-67
2021/06/15 10:04:56;;;;;;;6.72;3.45;;;34.90;26.20;;;;;;4959708;28;20033;-67
2021/06/15 10:07:30;;;;;;;7.13;2.72;;;34.90;27.00;;;;;;4974221;28;20114;-67
2021/06/15 10:09:58;;;;;;;4.97;2.58;;;34.50;27.50;;;;;;4974326;28;20077;-67
2021/06/15 10:12:24;;;;;;;5.43;2.85;;;34.10;27.70;;;;;;4974668;28;20038;-67
2021/06/15 10:14:56;;;;;;;9.75;2.90;;;33.50;29.40;;;;;;4955956;28;20114;-67
2021/06/15 10:17:23;;;;;;;18.05;6.55;;;32.60;29.70;;;;;;4954892;29;20023;-67
2021/06/15 10:19:49;;;;;;;8.82;3.17;;;32.00;32.10;;;;;;4960260;28;20030;-67
2021/06/15 10:22:16;;;;;;;8.25;3.17;;;32.30;31.60;;;;;;4982599;28;20044;-67
2021/06/15 10:24:41;;;;;;;61.38;34.50;;;32.40;31.80;;;;;;4993869;28;20105;-68
2021/06/15 10:27:11;;;;;;;7.68;2.55;;;32.60;32.60;;;;;;4983114;28;20110;-68
2021/06/15 10:29:39;;;;;;;7.78;3.17;;;32.80;31.00;;;;;;4974490;28;20015;-68
2021/06/15 10:32:14;;;;;;;5.65;3.00;;;32.80;31.50;;;;;;4974009;28;20426;-68
2021/06/15 10:34:58;;;;;;;7.65;2.97;;;32.50;32.00;;;;;;4974233;28;20078;-68
2021/06/15 10:37:39;;;;;;;9.40;2.97;;;31.80;31.50;;;;;;4973832;28;20019;-68
2021/06/15 10:42:35;;;;;;;8.55;4.13;;;31.00;33.80;;;;;;5025529;28;20044;-68
2021/06/15 10:45:16;;;;;;;6.38;2.92;;;31.30;33.70;;;;;;5027758;28;20083;-68
2021/06/15 10:48:05;;;;;;;7.97;3.17;;;31.90;32.10;;;;;;5034442;28;20056;-68
2021/06/15 10:50:39;;;;;;;5.22;2.50;;;32.00;32.30;;;;;;5035572;28;20030;-68
2021/06/15 10:53:08;;;;;;;4.35;2.55;;;32.00;31.70;;;;;;5030672;28;20052;-68
2021/06/15 10:56:01;;;;;;;5.32;2.80;;;31.90;32.30;;;;;;5031629;28;20057;-69
2021/06/15 10:58:33;;;;;;;4.63;2.60;;;31.90;31.70;;;;;;5013587;28;20045;-69
2021/06/15 11:01:14;;;;;;;8.00;3.50;;;31.60;30.80;;;;;;5032182;28;20022;-69
2021/06/15 11:03:52;;;;;;;7.82;3.10;;;31.30;30.30;;;;;;5031043;28;20475;-69
2021/06/15 11:06:21;;;;;;;5.38;2.58;;;31.00;32.00;;;;;;5028547;28;20063;-69
2021/06/15 11:09:11;;;;;;;4.88;3.00;;;31.00;31.50;;;;;;5032165;28;20458;-68
2021/06/15 11:11:36;;;;;;;5.45;3.03;;;31.00;32.20;;;;;;5029875;28;20112;-69
2021/06/15 11:14:20;;;;;;;7.43;2.85;;;30.90;31.10;;;;;;5014444;28;20112;-69
2021/06/15 11:16:47;;;;;;;7.93;2.60;;;30.90;31.70;;;;;;5031674;28;20036;-69
2021/06/15 11:19:13;;;;;;;10.38;2.40;;;30.80;31.40;;;;;;5031770;28;20104;-68
2021/06/15 11:22:07;;;;;;;5.50;2.80;;;30.50;31.40;;;;;;5012334;28;20022;-69
2021/06/15 11:24:37;;;;;;;3.15;2.50;;;30.40;32.80;;;;;;5013304;28;20041;-68
2021/06/15 11:27:04;;;;;;;4.43;2.83;;;30.50;33.10;;;;;;5031863;28;20028;-69
2021/06/15 11:29:38;;;;;;;18.17;8.30;;;30.70;33.70;;;;;;5032376;28;20096;-68
2021/06/15 11:32:12;;;;;;;5.43;2.88;;;30.80;33.20;;;;;;5014375;28;20025;-68
2021/06/15 11:34:40;;;;;;;54.90;24.60;;;31.20;31.90;;;;;;5032068;28;20018;-68
2021/06/15 11:37:20;;;;;;;23.73;13.18;;;31.40;32.40;;;;;;5030549;28;20399;-68
2021/06/15 11:39:46;;;;;;;9.50;2.92;;;31.80;31.80;;;;;;5030789;28;20492;-68
2021/06/15 11:42:21;;;;;;;4.22;2.80;;;32.00;31.80;;;;;;5013820;28;20040;-69
2021/06/15 11:44:54;;;;;;;5.22;2.55;;;32.30;30.90;;;;;;5014010;28;20026;-69
2021/06/15 11:47:32;;;;;;;5.00;3.00;;;32.50;29.30;;;;;;5031487;28;20028;-69
2021/06/15 11:50:18;;;;;;;5.00;2.65;;;32.60;30.10;;;;;;5013866;28;20017;-68
2021/06/15 11:53:09;;;;;;;7.32;3.22;;;32.50;30.60;;;;;;5031908;28;20021;-68
2021/06/15 11:55:40;;;;;;;8.43;3.15;;;32.60;31.10;;;;;;5031630;28;20390;-69
2021/06/15 11:58:09;;;;;;;5.65;2.90;;;32.40;31.50;;;;;;5030344;28;20148;-69
2021/06/15 12:00:40;;;;;;;5.50;2.35;;;32.30;31.30;;;;;;5029809;28;20017;-69
2021/06/15 12:03:09;;;;;;;;;;;32.20;32.60;;;;;;5032047;28;20022;-69
2021/06/15 12:05:40;;;;;;;3.65;2.53;;;32.20;32.10;;;;;;5032001;28;19927;-69
2021/06/15 12:08:06;;;;;;;3.25;2.67;;;32.10;32.40;;;;;;5013939;28;20018;-69
2021/06/15 12:10:33;;;;;;;3.97;2.30;;;31.90;33.10;;;;;;5031505;28;20403;-69
2021/06/15 12:12:58;;;;;;;4.38;2.75;;;32.00;33.50;;;;;;5031744;28;20475;-68
2021/06/15 12:15:27;;;;;;;4.20;2.42;;;31.90;32.40;;;;;;5031246;28;20035;-69
2021/06/15 12:17:53;;;;;;;4.70;2.70;;;31.90;32.60;;;;;;5031001;28;20459;-68
2021/06/15 12:20:28;;;;;;;7.43;2.75;;;32.00;33.00;;;;;;5031170;28;20056;-69
2021/06/15 12:22:55;;;;;;;5.30;3.05;;;32.00;31.80;;;;;;5031130;28;20057;-69
2021/06/15 12:25:31;;;;;;;5.80;2.90;;;31.60;31.90;;;;;;5031397;28;20026;-68
2021/06/15 12:28:18;;;;;;;8.10;3.78;;;30.50;32.50;;;;;;5030869;28;20041;-69
2021/06/15 12:30:44;;;;;;;5.68;2.78;;;30.30;34.10;;;;;;5030803;28;20030;-69
2021/06/15 12:33:24;;;;;;;5.95;3.00;;;30.60;34.40;;;;;;5034056;28;20033;-68
2021/06/15 12:35:50;;;;;;;9.33;3.17;;;30.90;33.80;;;;;;5017211;28;20125;-68
2021/06/15 12:38:15;;;;;;;7.95;2.67;;;31.50;33.70;;;;;;5034971;28;20314;-68
2021/06/15 12:40:44;;;;;;;5.45;2.58;;;31.90;32.50;;;;;;5034726;28;20144;-69
2021/06/15 12:43:10;;;;;;;7.55;2.92;;;32.00;32.30;;;;;;5033847;28;20025;-68
2021/06/15 12:45:38;;;;;;;9.57;3.30;;;32.10;32.70;;;;;;5016014;28;20487;-68
2021/06/15 12:48:25;;;;;;;8.30;3.35;;;32.20;31.80;;;;;;5034414;28;20033;-69
2021/06/15 12:51:27;;;;;;;6.43;2.83;;;32.40;30.50;;;;;;5034618;28;20049;-68
2021/06/15 12:53:54;;;;;;;5.47;2.72;;;31.80;31.60;;;;;;5024866;28;20529;-68
2021/06/15 12:56:21;;;;;;;7.60;3.38;;;32.00;31.40;;;;;;5033768;28;20601;-67
2021/06/15 12:58:50;;;;;;;5.68;2.70;;;32.10;30.20;;;;;;5034171;28;20017;-68
2021/06/15 13:01:34;;;;;;;3.92;2.35;;;31.90;30.40;;;;;;5033989;28;20124;-68
2021/06/15 13:04:14;;;;;;;7.60;2.65;;;32.00;31.40;;;;;;5034303;28;20029;-69
2021/06/15 13:06:40;;;;;;;6.72;2.42;;;32.20;30.90;;;;;;5027127;28;20033;-69
2021/06/15 13:09:17;;;;;;;5.53;2.67;;;32.40;30.60;;;;;;5034310;28;20033;-69
2021/06/15 13:12:08;;;;;;;6.32;2.97;;;32.70;31.00;;;;;;5031593;28;20164;-68
2021/06/15 13:14:39;;;;;;;3.40;2.80;;;32.90;30.60;;;;;;5034375;28;20052;-68
2021/06/15 13:17:13;;;;;;;3.65;2.70;;;33.10;30.70;;;;;;5033918;28;20017;-69
2021/06/15 13:19:49;;;;;;;4.28;2.60;;;33.00;29.40;;;;;;5034248;28;20022;-69
2021/06/15 13:22:28;;;;;;;5.18;2.97;;;32.90;29.10;;;;;;5033955;28;20045;-68
2021/06/15 13:24:54;;;;;;;4.28;2.22;;;32.60;30.40;;;;;;5020623;28;20038;-69
2021/06/15 13:27:36;;;;;;;4.55;2.85;;;32.50;29.90;;;;;;5036602;28;20025;-69
2021/06/15 13:30:15;;;;;;;5.13;2.90;;;32.60;30.40;;;;;;5053831;28;20056;-69
2021/06/15 13:32:42;;;;;;;7.90;2.60;;;32.50;30.50;;;;;;5043491;28;20032;-68
2021/06/15 13:35:22;;;;;;;6.10;2.92;;;32.40;30.40;;;;;;5019296;28;20037;-69
2021/06/15 13:37:57;;;;;;;5.53;2.50;;;32.20;30.30;;;;;;5033519;28;20078;-68